Time;durP1;ratioP1;P1;durP2;ratioP2;P2;SDS_P1;SDS_P2;PMS_P1;PMS_P2;Temp;Humidity;BMP_temperature;BMP_pressure;BME280_temperature;BME280_humidity;BME280_pressure;Samples;Min_cycle;Max_cycle;Signal;HPM_P1;HPM_P2
2024/03/31 00:00:20;;;;;;;0.52;0.45;;;16.40;99.90;;;;;;5008357;28;20161;-62
2024/03/31 00:02:47;;;;;;;1.20;0.88;;;16.30;99.90;;;;;;5009996;28;20094;-60
2024/03/31 00:05:14;;;;;;;3.00;1.35;;;16.10;99.90;;;;;;5006867;28;20063;-61
2024/03/31 00:07:40;;;;;;;2.80;0.73;;;16.00;99.90;;;;;;5009090;28;20071;-61
2024/03/31 00:10:07;;;;;;;1.70;0.80;;;15.90;99.90;;;;;;5010036;28;20074;-61
2024/03/31 00:12:33;;;;;;;3.60;0.70;;;15.90;99.90;;;;;;5009340;28;21512;-60
2024/03/31 00:15:00;;;;;;;2.70;0.60;;;15.70;99.90;;;;;;5008544;28;20086;-60
2024/03/31 00:17:26;;;;;;;2.53;0.50;;;15.70;99.90;;;;;;5007618;28;20070;-61
2024/03/31 00:19:53;;;;;;;0.70;0.70;;;15.60;99.90;;;;;;5008979;28;20100;-61
2024/03/31 00:22:20;;;;;;;1.23;1.00;;;15.60;99.90;;;;;;5008793;28;20096;-60
2024/03/31 00:24:46;;;;;;;4.78;0.77;;;15.80;99.90;;;;;;5009559;28;20070;-61
2024/03/31 00:27:12;;;;;;;1.85;0.77;;;16.00;99.90;;;;;;5008540;28;20094;-61
2024/03/31 00:29:39;;;;;;;2.83;0.60;;;16.30;99.90;;;;;;4991683;28;20085;-62
2024/03/31 00:32:06;;;;;;;1.58;0.50;;;16.30;99.90;;;;;;5009394;28;20070;-60
2024/03/31 00:34:33;;;;;;;2.03;0.60;;;16.30;99.90;;;;;;5008086;28;20074;-61
2024/03/31 00:37:00;;;;;;;0.70;0.70;;;16.20;99.90;;;;;;5007887;28;20521;-60
2024/03/31 00:39:26;;;;;;;2.40;1.00;;;16.20;99.90;;;;;;5008580;28;20187;-60
2024/03/31 00:41:54;;;;;;;1.95;0.68;;;16.10;99.90;;;;;;5007596;28;20109;-60
2024/03/31 00:44:20;;;;;;;1.85;0.75;;;16.40;99.90;;;;;;5005730;28;20070;-61
2024/03/31 00:46:47;;;;;;;4.53;1.20;;;16.30;99.90;;;;;;5009657;28;20070;-62
2024/03/31 00:49:13;;;;;;;0.85;0.70;;;16.20;99.90;;;;;;5007554;28;20120;-60
2024/03/31 00:51:40;;;;;;;4.57;0.80;;;16.00;99.90;;;;;;5006882;28;20070;-60
2024/03/31 00:54:08;;;;;;;3.42;0.70;;;15.90;99.90;;;;;;5007608;28;20079;-61
2024/03/31 00:56:35;;;;;;;5.18;0.77;;;15.70;99.90;;;;;;5007133;28;20098;-60
2024/03/31 00:59:02;;;;;;;4.47;0.85;;;15.70;99.90;;;;;;5007532;28;20573;-61
2024/03/31 01:01:28;;;;;;;4.93;0.88;;;15.70;99.90;;;;;;4991360;28;20118;-60
2024/03/31 01:03:55;;;;;;;3.03;1.38;;;15.70;99.90;;;;;;5007901;28;20160;-60
2024/03/31 01:06:25;;;;;;;4.32;1.00;;;15.60;99.90;;;;;;5007324;28;20066;-60
2024/03/31 01:08:53;;;;;;;5.63;0.70;;;15.50;99.90;;;;;;4991039;28;20078;-59
2024/03/31 01:11:21;;;;;;;2.45;0.93;;;15.40;99.90;;;;;;5007723;28;20082;-60
2024/03/31 01:13:48;;;;;;;3.33;1.67;;;15.40;99.90;;;;;;5005756;28;20110;-63
2024/03/31 01:16:15;;;;;;;2.13;0.77;;;15.60;99.90;;;;;;5007465;28;20070;-61
2024/03/31 01:18:43;;;;;;;3.58;0.77;;;15.40;99.90;;;;;;5008175;28;20148;-61
2024/03/31 01:21:11;;;;;;;4.90;0.98;;;15.40;99.90;;;;;;5008211;28;20074;-61
2024/03/31 01:23:45;;;;;;;3.05;1.08;;;15.20;99.90;;;;;;5006142;28;20086;-62
2024/03/31 01:26:13;;;;;;;4.72;0.80;;;15.20;99.90;;;;;;5008599;28;20077;-60
2024/03/31 01:28:39;;;;;;;1.92;1.02;;;15.20;99.90;;;;;;5005929;28;20559;-60
2024/03/31 01:31:06;;;;;;;1.83;0.75;;;15.20;99.90;;;;;;5008000;28;20077;-60
2024/03/31 01:33:32;;;;;;;6.53;1.08;;;15.20;99.90;;;;;;5007210;28;20067;-61
2024/03/31 01:36:02;;;;;;;2.70;1.10;;;15.40;99.90;;;;;;5007578;28;20114;-61
2024/03/31 01:38:29;;;;;;;5.20;1.50;;;15.50;99.90;;;;;;5007675;28;20089;-61
2024/03/31 01:40:56;;;;;;;2.67;0.90;;;15.40;99.90;;;;;;5007060;28;20197;-61
2024/03/31 01:43:22;;;;;;;5.22;1.00;;;15.40;99.90;;;;;;5007237;28;20089;-60
2024/03/31 01:45:48;;;;;;;14.45;1.92;;;15.30;99.90;;;;;;4990399;28;20105;-64
2024/03/31 01:48:15;;;;;;;2.10;1.10;;;15.30;99.90;;;;;;5008152;28;20066;-60
2024/03/31 01:50:42;;;;;;;4.43;0.88;;;15.30;99.90;;;;;;5006278;28;20078;-61
2024/03/31 01:53:08;;;;;;;2.45;1.20;;;15.20;99.90;;;;;;5007648;28;20070;-62
2024/03/31 01:55:35;;;;;;;3.88;1.25;;;15.20;99.90;;;;;;5005580;28;20539;-60
2024/03/31 01:58:02;;;;;;;1.38;0.90;;;15.20;99.90;;;;;;5007400;28;20112;-63
2024/03/31 02:00:28;;;;;;;3.22;0.70;;;15.20;99.90;;;;;;5008411;28;20572;-60
2024/03/31 02:02:55;;;;;;;0.98;0.88;;;15.20;99.90;;;;;;5010017;28;20144;-63
2024/03/31 02:05:23;;;;;;;1.25;0.70;;;15.10;99.90;;;;;;5012233;28;20516;-61
2024/03/31 02:07:50;;;;;;;4.93;1.20;;;15.20;99.90;;;;;;5011657;28;20070;-61
2024/03/31 02:10:17;;;;;;;0.70;0.70;;;15.20;99.90;;;;;;5011472;28;20106;-62
2024/03/31 02:12:43;;;;;;;3.55;0.90;;;15.20;99.90;;;;;;4994562;28;20070;-62
2024/03/31 02:15:11;;;;;;;2.15;0.77;;;15.10;99.90;;;;;;5010075;28;20125;-60
2024/03/31 02:17:37;;;;;;;6.60;1.20;;;15.00;99.90;;;;;;5010071;28;20074;-60
2024/03/31 02:20:06;;;;;;;4.75;1.40;;;15.00;99.90;;;;;;5011256;28;20078;-61
2024/03/31 02:22:33;;;;;;;3.72;0.90;;;15.00;99.90;;;;;;5011135;28;20169;-62
2024/03/31 02:25:00;;;;;;;2.03;1.00;;;15.20;99.90;;;;;;5009689;28;20114;-61
2024/03/31 02:27:26;;;;;;;2.08;1.05;;;15.20;99.90;;;;;;5010507;28;20093;-61
2024/03/31 02:29:53;;;;;;;3.10;1.20;;;15.20;99.90;;;;;;5009416;28;20500;-61
2024/03/31 02:32:20;;;;;;;1.92;1.23;;;15.20;99.90;;;;;;5009463;28;20074;-60
2024/03/31 02:34:46;;;;;;;6.32;1.30;;;15.20;99.90;;;;;;5010332;28;20572;-60
2024/03/31 02:37:13;;;;;;;2.75;0.88;;;15.20;99.90;;;;;;5006924;28;20551;-61
2024/03/31 02:39:39;;;;;;;3.70;1.15;;;15.30;99.90;;;;;;5007886;28;20111;-62
2024/03/31 02:42:06;;;;;;;1.23;0.95;;;15.20;99.90;;;;;;5009679;28;20098;-62
2024/03/31 02:44:32;;;;;;;3.95;1.17;;;15.20;99.90;;;;;;5010070;28;20082;-64
2024/03/31 02:46:59;;;;;;;1.73;0.90;;;15.10;99.90;;;;;;5008622;28;20492;-59
2024/03/31 02:49:25;;;;;;;2.53;1.08;;;15.10;99.90;;;;;;5009206;28;20146;-61
2024/03/31 02:51:52;;;;;;;4.35;1.00;;;15.10;99.90;;;;;;4992160;28;20074;-60
2024/03/31 02:54:18;;;;;;;7.55;1.50;;;15.10;99.90;;;;;;5010089;28;20078;-61
2024/03/31 02:56:45;;;;;;;3.22;1.10;;;15.10;99.90;;;;;;5010220;28;20152;-60
2024/03/31 02:59:11;;;;;;;4.07;1.13;;;15.10;99.90;;;;;;5009353;28;20121;-60
2024/03/31 03:01:38;;;;;;;3.65;0.90;;;15.10;99.90;;;;;;4990561;28;20115;-60
2024/03/31 03:04:04;;;;;;;3.70;1.02;;;15.10;99.90;;;;;;5009750;28;20109;-61
2024/03/31 03:06:31;;;;;;;2.30;1.00;;;15.10;99.90;;;;;;5009520;28;20075;-60
2024/03/31 03:08:57;;;;;;;3.70;0.98;;;15.10;99.90;;;;;;4992009;28;20129;-59
2024/03/31 03:11:23;;;;;;;2.47;1.10;;;15.10;99.90;;;;;;5009726;28;20132;-59
2024/03/31 03:13:50;;;;;;;5.20;1.00;;;15.20;99.90;;;;;;4991106;28;20070;-60
2024/03/31 03:16:17;;;;;;;3.28;1.00;;;15.20;99.90;;;;;;5009670;28;20067;-60
2024/03/31 03:18:44;;;;;;;5.60;1.30;;;15.20;99.90;;;;;;5009610;28;20083;-64
2024/03/31 03:21:11;;;;;;;2.00;1.30;;;15.20;99.90;;;;;;5010200;28;20136;-61
2024/03/31 03:23:38;;;;;;;2.78;1.30;;;15.20;99.90;;;;;;5007069;28;20079;-61
2024/03/31 03:26:05;;;;;;;3.33;1.10;;;15.30;99.90;;;;;;5009686;28;20136;-61
2024/03/31 03:28:31;;;;;;;5.20;1.20;;;15.30;99.90;;;;;;5008838;28;20078;-61
2024/03/31 03:31:00;;;;;;;1.90;0.93;;;15.30;99.90;;;;;;5010063;28;20513;-62
2024/03/31 03:33:27;;;;;;;3.58;1.55;;;15.20;99.90;;;;;;5005799;28;20074;-61
2024/03/31 03:35:53;;;;;;;7.57;1.55;;;15.10;99.90;;;;;;5009739;28;20070;-61
2024/03/31 03:38:20;;;;;;;4.07;1.33;;;15.10;99.90;;;;;;5008876;28;20157;-61
2024/03/31 03:40:46;;;;;;;1.55;1.38;;;15.20;99.90;;;;;;5008683;28;20549;-60
2024/03/31 03:43:14;;;;;;;5.07;1.67;;;15.10;99.90;;;;;;5009270;28;20215;-61
2024/03/31 03:45:41;;;;;;;3.10;2.10;;;15.20;99.90;;;;;;5008889;28;20109;-60
2024/03/31 03:48:07;;;;;;;5.88;1.80;;;15.20;99.90;;;;;;5006794;28;20094;-61
2024/03/31 03:50:36;;;;;;;2.42;1.40;;;15.30;99.90;;;;;;5007068;28;20475;-60
2024/03/31 03:53:05;;;;;;;3.40;1.00;;;15.40;99.90;;;;;;5009461;28;20520;-60
2024/03/31 03:55:32;;;;;;;4.95;2.45;;;15.60;99.90;;;;;;5006973;28;20071;-61
2024/03/31 03:57:59;;;;;;;5.50;3.03;;;15.60;99.90;;;;;;4974468;28;20070;-60
2024/03/31 04:00:26;;;;;;;8.73;2.92;;;15.50;99.90;;;;;;5008250;28;20531;-60
2024/03/31 04:02:52;;;;;;;3.17;2.17;;;15.50;99.90;;;;;;4991168;28;20106;-61
2024/03/31 04:05:19;;;;;;;4.35;2.13;;;15.50;99.90;;;;;;4991610;28;20101;-60
2024/03/31 04:07:49;;;;;;;2.38;1.60;;;15.50;99.90;;;;;;5009162;28;20081;-60
2024/03/31 04:10:16;;;;;;;4.82;1.80;;;15.40;99.90;;;;;;5009062;28;20082;-64
2024/03/31 04:12:42;;;;;;;3.00;1.45;;;15.40;99.90;;;;;;4991500;28;20217;-62
2024/03/31 04:15:08;;;;;;;3.00;2.00;;;15.30;99.90;;;;;;5009465;28;20070;-61
2024/03/31 04:17:36;;;;;;;3.55;2.13;;;15.40;99.90;;;;;;4991226;28;20120;-60
2024/03/31 04:20:03;;;;;;;4.95;2.80;;;15.50;99.90;;;;;;5009169;28;20098;-61
2024/03/31 04:22:30;;;;;;;6.10;2.30;;;15.40;99.90;;;;;;4990348;28;20101;-59
2024/03/31 04:24:56;;;;;;;8.35;2.40;;;15.30;99.90;;;;;;5006464;28;20159;-60
2024/03/31 04:27:22;;;;;;;5.38;2.58;;;15.30;99.90;;;;;;5008797;28;20078;-60
2024/03/31 04:29:49;;;;;;;6.97;2.53;;;15.40;99.90;;;;;;5007182;28;20082;-61
2024/03/31 04:32:16;;;;;;;3.13;1.75;;;15.30;99.90;;;;;;5008012;28;20563;-61
2024/03/31 04:34:43;;;;;;;5.22;2.30;;;15.30;99.90;;;;;;4988711;28;20070;-59
2024/03/31 04:37:10;;;;;;;7.00;2.90;;;15.30;99.90;;;;;;5007603;28;20070;-59
2024/03/31 04:39:37;;;;;;;9.93;3.30;;;15.30;99.90;;;;;;5005901;28;20184;-59
2024/03/31 04:42:04;;;;;;;5.25;3.35;;;15.30;99.90;;;;;;5008351;28;20585;-59
2024/03/31 04:44:31;;;;;;;6.82;3.22;;;15.30;99.90;;;;;;5005064;28;20105;-61
2024/03/31 04:46:59;;;;;;;11.10;2.75;;;15.40;99.90;;;;;;5007279;28;20113;-60
2024/03/31 04:49:25;;;;;;;7.95;2.67;;;15.20;99.90;;;;;;5008122;28;20145;-61
2024/03/31 04:51:52;;;;;;;7.38;2.33;;;15.20;99.90;;;;;;5009192;28;20071;-59
2024/03/31 04:54:20;;;;;;;9.75;3.70;;;15.30;99.90;;;;;;5007722;28;20079;-59
2024/03/31 04:56:49;;;;;;;12.10;3.50;;;15.30;99.90;;;;;;5007739;28;20194;-59
2024/03/31 04:59:16;;;;;;;4.85;3.53;;;15.20;99.90;;;;;;5006510;28;20082;-59
2024/03/31 05:01:42;;;;;;;11.05;2.63;;;15.20;99.90;;;;;;4988908;28;20640;-61
2024/03/31 05:04:10;;;;;;;5.97;2.40;;;15.30;99.90;;;;;;5005952;28;20599;-60
2024/03/31 05:06:36;;;;;;;5.35;2.42;;;15.30;99.90;;;;;;5007561;28;20089;-60
2024/03/31 05:09:03;;;;;;;7.55;2.58;;;15.40;99.90;;;;;;5009303;28;20066;-61
2024/03/31 05:11:30;;;;;;;8.38;2.70;;;15.40;99.90;;;;;;5009878;28;20078;-60
2024/03/31 05:13:56;;;;;;;6.07;2.60;;;15.30;99.90;;;;;;5011042;28;20134;-59
2024/03/31 05:16:23;;;;;;;9.13;2.30;;;15.30;99.90;;;;;;5008494;28;20074;-60
2024/03/31 05:18:54;;;;;;;8.00;2.70;;;15.30;99.90;;;;;;5006395;28;20082;-61
2024/03/31 05:21:20;;;;;;;8.85;2.30;;;15.30;99.90;;;;;;5007541;28;20081;-60
2024/03/31 05:23:47;;;;;;;7.13;2.30;;;15.30;99.90;;;;;;5005246;28;20424;-63
2024/03/31 05:26:14;;;;;;;9.52;3.50;;;15.30;99.90;;;;;;5006903;28;20090;-60
2024/03/31 05:28:41;;;;;;;7.22;3.80;;;15.40;99.90;;;;;;5006101;28;20079;-59
2024/03/31 05:31:07;;;;;;;10.77;3.67;;;15.50;99.90;;;;;;5007761;28;20077;-59
2024/03/31 05:33:35;;;;;;;5.38;3.40;;;15.60;99.90;;;;;;5005377;28;20082;-59
2024/03/31 05:36:01;;;;;;;9.77;4.30;;;15.70;99.90;;;;;;5006775;28;20094;-63
2024/03/31 05:38:28;;;;;;;6.55;3.20;;;15.60;99.90;;;;;;5007621;28;20578;-59
2024/03/31 05:40:55;;;;;;;4.43;3.70;;;15.50;99.90;;;;;;5006465;28;20408;-59
2024/03/31 05:43:22;;;;;;;12.57;3.85;;;15.60;99.90;;;;;;5007071;28;20098;-60
2024/03/31 05:45:48;;;;;;;7.47;4.00;;;15.60;99.90;;;;;;5006517;28;20479;-61
2024/03/31 05:48:15;;;;;;;10.57;3.58;;;15.70;99.90;;;;;;5006663;28;20067;-60
2024/03/31 05:50:41;;;;;;;7.80;3.95;;;15.70;99.90;;;;;;5006944;28;20136;-61
2024/03/31 05:53:08;;;;;;;6.95;4.55;;;15.70;99.90;;;;;;5007110;28;20444;-61
2024/03/31 05:55:34;;;;;;;5.63;3.95;;;15.60;99.90;;;;;;5005357;28;20561;-60
2024/03/31 05:58:01;;;;;;;9.40;3.38;;;15.60;99.90;;;;;;5007698;28;20216;-62
2024/03/31 06:00:27;;;;;;;7.45;2.90;;;15.60;99.90;;;;;;5005102;28;20078;-59
2024/03/31 06:02:54;;;;;;;6.93;2.33;;;15.70;99.90;;;;;;5005882;28;20101;-61
2024/03/31 06:05:20;;;;;;;9.27;3.55;;;15.70;99.90;;;;;;5006390;28;20067;-60
2024/03/31 06:07:48;;;;;;;7.07;3.47;;;15.70;99.90;;;;;;4989885;28;20077;-61
2024/03/31 06:10:15;;;;;;;7.68;4.28;;;15.60;99.90;;;;;;5007140;28;20071;-62
2024/03/31 06:12:42;;;;;;;11.30;4.10;;;15.60;99.90;;;;;;5006943;28;20081;-59
2024/03/31 06:15:09;;;;;;;10.50;3.35;;;15.60;99.90;;;;;;4989577;28;20128;-60
2024/03/31 06:17:36;;;;;;;6.15;3.10;;;15.60;99.90;;;;;;5005880;28;20063;-60
2024/03/31 06:20:03;;;;;;;4.45;2.60;;;15.50;99.90;;;;;;5006436;28;20436;-60
2024/03/31 06:22:30;;;;;;;4.38;2.45;;;15.40;99.90;;;;;;5006988;28;20228;-62
2024/03/31 06:24:57;;;;;;;4.13;2.40;;;15.30;99.90;;;;;;5005662;28;20402;-60
2024/03/31 06:27:23;;;;;;;4.38;1.80;;;15.30;99.90;;;;;;5005832;28;20431;-60
2024/03/31 06:29:50;;;;;;;3.35;1.50;;;15.30;99.90;;;;;;5006683;28;20077;-60
2024/03/31 06:32:17;;;;;;;4.35;1.15;;;15.30;99.90;;;;;;5006078;28;20092;-59
2024/03/31 06:34:45;;;;;;;3.15;1.33;;;15.30;99.90;;;;;;5005282;28;20082;-59
2024/03/31 06:37:12;;;;;;;5.55;1.80;;;15.30;99.90;;;;;;5004801;28;20082;-61
2024/03/31 06:39:39;;;;;;;3.55;1.60;;;15.20;99.90;;;;;;5006246;28;20102;-60
2024/03/31 06:42:05;;;;;;;6.28;1.80;;;15.10;99.90;;;;;;5005382;28;20109;-60
2024/03/31 06:44:32;;;;;;;6.10;2.72;;;15.10;99.90;;;;;;5005743;28;20086;-60
2024/03/31 06:46:58;;;;;;;5.47;2.58;;;14.90;99.90;;;;;;5007325;28;20081;-60
2024/03/31 06:49:25;;;;;;;5.72;3.53;;;14.80;99.90;;;;;;5010093;28;20124;-60
2024/03/31 06:51:51;;;;;;;7.25;3.95;;;14.70;99.90;;;;;;4992522;28;20397;-60
2024/03/31 06:54:17;;;;;;;8.77;3.22;;;14.70;99.90;;;;;;5009849;28;20571;-59
2024/03/31 06:56:44;;;;;;;3.83;2.72;;;14.60;99.90;;;;;;5010502;28;20117;-60
2024/03/31 06:59:11;;;;;;;5.45;2.67;;;14.60;99.90;;;;;;5009972;28;20081;-60
2024/03/31 07:01:37;;;;;;;6.32;2.13;;;14.60;99.90;;;;;;5008493;28;20094;-60
2024/03/31 07:04:04;;;;;;;3.38;1.58;;;14.50;99.90;;;;;;5009544;28;20073;-61
2024/03/31 07:06:30;;;;;;;3.05;1.73;;;14.50;99.90;;;;;;5009656;28;20073;-59
2024/03/31 07:08:57;;;;;;;4.78;2.22;;;14.50;99.90;;;;;;5009827;28;20154;-60
2024/03/31 07:11:23;;;;;;;6.40;2.03;;;14.50;99.90;;;;;;5007887;28;20090;-59
2024/03/31 07:13:50;;;;;;;6.43;2.28;;;14.40;99.90;;;;;;5009353;28;20400;-60
2024/03/31 07:16:16;;;;;;;4.10;2.35;;;14.20;99.90;;;;;;5010451;28;20161;-58
2024/03/31 07:18:43;;;;;;;11.05;3.78;;;14.10;99.90;;;;;;4992020;28;20548;-59
2024/03/31 07:21:09;;;;;;;8.63;4.50;;;14.00;99.90;;;;;;5006883;28;20494;-59
2024/03/31 07:23:35;;;;;;;7.65;3.80;;;14.00;99.90;;;;;;4991036;28;20144;-60
2024/03/31 07:26:02;;;;;;;7.60;3.33;;;14.00;99.90;;;;;;5008669;28;20409;-61
2024/03/31 07:28:28;;;;;;;6.53;3.58;;;14.00;99.90;;;;;;5009450;28;20431;-64
2024/03/31 07:30:55;;;;;;;7.35;2.47;;;14.00;99.90;;;;;;5009048;28;20067;-60
2024/03/31 07:33:21;;;;;;;5.07;1.85;;;14.00;99.90;;;;;;5008250;28;20073;-61
2024/03/31 07:35:48;;;;;;;9.65;1.70;;;14.00;99.90;;;;;;5008165;28;20078;-60
2024/03/31 07:38:14;;;;;;;;;;;14.00;99.90;;;;;;5009245;28;20070;-61
2024/03/31 07:40:40;;;;;;;6.38;2.75;;;14.10;99.90;;;;;;5008585;28;20455;-60
2024/03/31 07:43:09;;;;;;;8.95;3.40;;;14.10;99.90;;;;;;5009302;28;20164;-59
2024/03/31 07:45:35;;;;;;;8.05;3.00;;;13.90;99.90;;;;;;4989977;28;20075;-59
2024/03/31 07:48:02;;;;;;;5.18;3.13;;;13.80;99.90;;;;;;5009094;28;20086;-59
2024/03/31 07:50:29;;;;;;;8.75;3.58;;;13.90;99.90;;;;;;5009257;28;20094;-60
2024/03/31 07:52:55;;;;;;;10.15;6.75;;;13.80;99.90;;;;;;4990771;28;20427;-59
2024/03/31 07:55:22;;;;;;;9.30;7.93;;;13.70;99.90;;;;;;5009582;28;20120;-60
2024/03/31 07:57:50;;;;;;;11.27;9.63;;;13.70;99.90;;;;;;5007383;28;20089;-60
2024/03/31 08:00:17;;;;;;;27.58;24.98;;;13.60;99.90;;;;;;4991259;28;20070;-61
2024/03/31 08:02:44;;;;;;;22.25;20.15;;;13.50;99.90;;;;;;5007644;28;20102;-61
2024/03/31 08:05:10;;;;;;;18.08;15.48;;;13.60;99.90;;;;;;4990909;28;20063;-60
2024/03/31 08:07:37;;;;;;;19.98;14.52;;;13.70;99.90;;;;;;5009272;28;20104;-60
2024/03/31 08:10:03;;;;;;;11.77;10.38;;;13.60;99.90;;;;;;5008418;28;20105;-60
2024/03/31 08:12:30;;;;;;;8.88;6.22;;;13.60;99.90;;;;;;5008541;28;20082;-60
2024/03/31 08:14:56;;;;;;;14.10;6.70;;;13.60;99.90;;;;;;5008291;28;20070;-60
2024/03/31 08:17:23;;;;;;;13.05;7.82;;;13.60;99.90;;;;;;5008921;28;20144;-59
2024/03/31 08:19:50;;;;;;;14.43;8.13;;;13.40;99.90;;;;;;5007161;28;20098;-58
2024/03/31 08:22:17;;;;;;;12.07;7.85;;;13.30;99.90;;;;;;5008261;28;20155;-59
2024/03/31 08:24:44;;;;;;;13.68;7.18;;;13.20;99.90;;;;;;5008421;28;20071;-59
2024/03/31 08:27:10;;;;;;;9.25;6.72;;;13.20;99.90;;;;;;4989998;28;20225;-59
2024/03/31 08:29:37;;;;;;;10.60;7.75;;;13.20;99.90;;;;;;4989906;28;20105;-60
2024/03/31 08:32:04;;;;;;;12.20;8.05;;;13.20;99.90;;;;;;5008382;28;20125;-60
2024/03/31 08:34:30;;;;;;;16.73;9.07;;;13.20;99.90;;;;;;5007619;28;20116;-60
2024/03/31 08:36:57;;;;;;;11.18;8.57;;;13.10;99.90;;;;;;4990291;28;20072;-60
2024/03/31 08:39:23;;;;;;;13.05;8.02;;;13.10;99.90;;;;;;4989720;28;21338;-59
2024/03/31 08:41:56;;;;;;;15.15;8.35;;;13.10;99.90;;;;;;5007166;28;20105;-61
2024/03/31 08:44:23;;;;;;;16.55;9.38;;;13.10;99.90;;;;;;5007193;28;20531;-61
2024/03/31 08:46:52;;;;;;;14.07;8.07;;;13.10;99.90;;;;;;5008400;28;20070;-60
2024/03/31 08:49:20;;;;;;;11.15;7.13;;;13.10;99.90;;;;;;5007317;28;20077;-60
2024/03/31 08:51:48;;;;;;;10.60;7.05;;;13.10;99.90;;;;;;5005788;28;20075;-60
2024/03/31 08:54:15;;;;;;;8.57;6.03;;;13.00;99.90;;;;;;4989302;28;20077;-60
2024/03/31 08:56:42;;;;;;;8.88;6.40;;;13.10;99.90;;;;;;4990054;28;20427;-60
2024/03/31 08:59:08;;;;;;;10.38;6.60;;;13.20;99.90;;;;;;5007712;28;20223;-60
2024/03/31 09:01:35;;;;;;;13.85;10.63;;;13.20;99.90;;;;;;5007335;28;20098;-60
2024/03/31 09:04:03;;;;;;;41.08;36.92;;;13.20;99.90;;;;;;4988447;28;20087;-60
2024/03/31 09:06:30;;;;;;;47.17;42.67;;;13.20;99.90;;;;;;5006119;28;20078;-60
2024/03/31 09:09:01;;;;;;;22.98;20.73;;;13.10;99.90;;;;;;5006102;28;20145;-60
2024/03/31 09:11:29;;;;;;;13.27;11.88;;;13.00;99.90;;;;;;5005969;28;20073;-59
2024/03/31 09:13:59;;;;;;;11.63;8.68;;;13.00;99.90;;;;;;5007410;28;20466;-60
2024/03/31 09:16:26;;;;;;;10.75;8.85;;;13.00;99.90;;;;;;4990071;28;20170;-60
2024/03/31 09:18:52;;;;;;;9.88;7.75;;;13.00;99.90;;;;;;4987593;28;20079;-60
2024/03/31 09:21:18;;;;;;;11.35;8.10;;;13.00;99.90;;;;;;4989612;28;20075;-60
2024/03/31 09:23:46;;;;;;;12.15;8.57;;;13.00;99.90;;;;;;5007399;28;20066;-60
2024/03/31 09:26:13;;;;;;;9.70;5.13;;;13.00;99.90;;;;;;5007144;28;20070;-59
2024/03/31 09:28:39;;;;;;;7.65;5.18;;;12.90;99.90;;;;;;5007607;28;20080;-59
2024/03/31 09:31:06;;;;;;;7.80;4.60;;;12.90;99.90;;;;;;5006951;28;20120;-60
2024/03/31 09:33:38;;;;;;;13.27;5.60;;;12.90;99.90;;;;;;5005914;28;20075;-60
2024/03/31 09:36:08;;;;;;;13.13;6.40;;;13.10;99.90;;;;;;5007743;28;20153;-60
2024/03/31 09:38:34;;;;;;;13.05;6.30;;;13.10;99.90;;;;;;4989866;28;20081;-60
2024/03/31 09:41:01;;;;;;;9.35;6.35;;;13.20;99.90;;;;;;5008188;28;20118;-59
2024/03/31 09:43:28;;;;;;;15.60;7.25;;;13.10;99.90;;;;;;5006418;28;20106;-60
2024/03/31 09:45:55;;;;;;;11.93;7.35;;;13.10;99.90;;;;;;5007003;28;20125;-59
2024/03/31 09:48:26;;;;;;;12.43;6.82;;;13.00;99.90;;;;;;4989993;28;20078;-59
2024/03/31 09:51:27;;;;;;;13.18;6.70;;;12.90;99.90;;;;;;5007310;28;20078;-59
2024/03/31 09:54:20;;;;;;;14.02;7.35;;;13.00;99.90;;;;;;4970918;28;20543;-59
2024/03/31 09:57:08;;;;;;;15.40;7.15;;;12.90;99.90;;;;;;5006763;28;20098;-59
2024/03/31 09:59:44;;;;;;;14.35;7.45;;;12.80;99.90;;;;;;5006676;28;20081;-59
2024/03/31 10:02:14;;;;;;;14.70;7.73;;;12.90;99.90;;;;;;5007080;28;20100;-60
2024/03/31 10:04:55;;;;;;;15.18;7.72;;;12.90;99.90;;;;;;5006289;28;20067;-60
2024/03/31 10:07:23;;;;;;;14.18;7.60;;;12.80;99.90;;;;;;5007048;28;20074;-59
2024/03/31 10:09:50;;;;;;;17.50;8.00;;;12.70;99.90;;;;;;5007978;28;20077;-59
2024/03/31 10:12:18;;;;;;;14.98;7.90;;;12.60;99.90;;;;;;5007096;28;20570;-59
2024/03/31 10:14:46;;;;;;;15.15;7.40;;;12.60;99.90;;;;;;5007109;28;20150;-59
2024/03/31 10:17:14;;;;;;;15.57;8.27;;;12.60;99.90;;;;;;5006797;28;20094;-60
2024/03/31 10:19:41;;;;;;;19.08;9.45;;;12.60;99.90;;;;;;5006544;28;20077;-59
2024/03/31 10:22:10;;;;;;;16.77;8.55;;;12.60;99.90;;;;;;5007117;28;20177;-59
2024/03/31 10:24:38;;;;;;;13.15;8.50;;;12.60;99.90;;;;;;4993520;28;20153;-60
2024/03/31 10:27:08;;;;;;;13.88;8.40;;;12.70;99.90;;;;;;5010420;28;20449;-60
2024/03/31 10:29:35;;;;;;;21.55;11.65;;;12.70;99.90;;;;;;5009624;28;20078;-60
2024/03/31 10:32:02;;;;;;;21.65;12.70;;;12.70;99.90;;;;;;5010460;28;20568;-59
2024/03/31 10:34:29;;;;;;;23.33;14.63;;;12.70;99.90;;;;;;5008906;28;20074;-60
2024/03/31 10:36:56;;;;;;;18.25;14.45;;;12.60;99.90;;;;;;5010989;28;20133;-59
2024/03/31 10:39:24;;;;;;;18.35;14.85;;;12.60;99.90;;;;;;5010530;28;20082;-60
2024/03/31 10:41:51;;;;;;;22.33;13.13;;;12.50;99.90;;;;;;5010439;28;20103;-59
2024/03/31 10:44:19;;;;;;;17.17;12.25;;;12.60;99.90;;;;;;5009079;28;21038;-60
2024/03/31 10:46:46;;;;;;;23.67;14.90;;;12.60;99.90;;;;;;5009680;28;20255;-60
2024/03/31 10:49:13;;;;;;;22.63;14.50;;;12.50;99.90;;;;;;5009694;28;20555;-60
2024/03/31 10:51:42;;;;;;;24.30;14.95;;;12.50;99.90;;;;;;5010372;28;20113;-59
2024/03/31 10:54:51;;;;;;;22.95;13.70;;;12.50;99.90;;;;;;5008086;28;20116;-59
2024/03/31 10:57:17;;;;;;;27.50;14.38;;;12.60;99.90;;;;;;4949582;29;20083;-59
2024/03/31 10:59:44;;;;;;;19.90;13.60;;;12.60;99.90;;;;;;4946882;28;20652;-60
2024/03/31 11:02:25;;;;;;;19.65;13.13;;;12.50;99.90;;;;;;4978691;28;20106;-61
2024/03/31 11:05:09;;;;;;;23.05;12.13;;;12.50;99.90;;;;;;5009177;28;20085;-60
2024/03/31 11:07:36;;;;;;;16.05;10.18;;;12.50;99.90;;;;;;5010130;28;20082;-59
2024/03/31 11:10:08;;;;;;;14.93;8.68;;;12.60;99.90;;;;;;5009661;28;20157;-59
2024/03/31 11:12:35;;;;;;;13.25;7.65;;;12.60;99.90;;;;;;5009429;28;20089;-59
2024/03/31 11:15:02;;;;;;;10.70;7.13;;;12.60;99.90;;;;;;5009124;28;20726;-60
2024/03/31 11:17:31;;;;;;;13.70;5.78;;;12.60;99.90;;;;;;4991319;28;20071;-60
2024/03/31 11:20:02;;;;;;;12.52;6.97;;;12.70;99.90;;;;;;5010290;28;20093;-61
2024/03/31 11:22:30;;;;;;;10.95;6.30;;;12.70;99.90;;;;;;5008807;28;20099;-60
2024/03/31 11:24:57;;;;;;;10.13;5.72;;;12.50;99.90;;;;;;5007834;28;20070;-60
2024/03/31 11:27:24;;;;;;;9.70;4.88;;;12.50;99.90;;;;;;5009257;28;20075;-60
2024/03/31 11:29:52;;;;;;;8.65;5.10;;;12.50;99.90;;;;;;5009125;28;20078;-60
2024/03/31 11:32:19;;;;;;;9.95;5.47;;;12.50;99.90;;;;;;5009441;28;20086;-61
2024/03/31 11:34:49;;;;;;;9.77;5.60;;;12.50;99.90;;;;;;5006485;28;20070;-61
2024/03/31 11:37:16;;;;;;;9.60;5.65;;;12.40;99.90;;;;;;4991773;28;20098;-59
2024/03/31 11:39:43;;;;;;;9.93;5.57;;;12.20;99.90;;;;;;5007790;28;20142;-60
2024/03/31 11:42:12;;;;;;;8.13;5.60;;;12.20;99.90;;;;;;5008934;28;20098;-60
2024/03/31 11:44:40;;;;;;;11.43;7.22;;;12.10;99.90;;;;;;5008269;28;20062;-60
2024/03/31 11:47:09;;;;;;;12.48;5.85;;;12.20;99.90;;;;;;4991114;28;20074;-60
2024/03/31 11:49:36;;;;;;;12.55;6.68;;;12.10;99.90;;;;;;5008372;28;20152;-60
2024/03/31 11:52:03;;;;;;;10.82;6.72;;;12.10;99.90;;;;;;5007031;28;20102;-59
2024/03/31 11:54:30;;;;;;;14.57;7.63;;;12.10;99.90;;;;;;5008746;28;20066;-60
2024/03/31 11:56:57;;;;;;;14.27;7.43;;;12.10;99.90;;;;;;5009305;28;20543;-60
2024/03/31 11:59:24;;;;;;;12.00;6.68;;;12.10;99.90;;;;;;5006981;28;20087;-60
2024/03/31 12:01:58;;;;;;;8.52;6.20;;;12.20;99.90;;;;;;5008755;28;20102;-60
2024/03/31 12:04:29;;;;;;;7.88;6.57;;;12.30;99.90;;;;;;5008444;28;20469;-59
2024/03/31 12:06:56;;;;;;;14.10;7.57;;;12.20;99.90;;;;;;5007089;28;20066;-59
2024/03/31 12:09:23;;;;;;;11.32;7.53;;;12.20;99.90;;;;;;4990927;28;20075;-59
2024/03/31 12:11:51;;;;;;;14.73;8.60;;;12.10;99.90;;;;;;5007515;28;20078;-60
2024/03/31 12:14:18;;;;;;;12.15;8.25;;;12.00;99.90;;;;;;5008116;28;20074;-60
2024/03/31 12:16:45;;;;;;;13.57;7.85;;;12.00;99.90;;;;;;5008143;28;20070;-60
2024/03/31 12:19:14;;;;;;;10.05;7.25;;;12.10;99.90;;;;;;5008882;28;20432;-60
2024/03/31 12:21:42;;;;;;;12.65;8.50;;;12.10;99.90;;;;;;5006991;28;20074;-60
2024/03/31 12:24:09;;;;;;;13.90;8.52;;;12.00;99.90;;;;;;5007553;28;20124;-60
2024/03/31 12:26:36;;;;;;;15.18;9.07;;;12.10;99.90;;;;;;5005399;28;20071;-60
2024/03/31 12:29:03;;;;;;;13.95;9.98;;;12.00;99.90;;;;;;4990868;28;20082;-61
2024/03/31 12:31:30;;;;;;;13.68;10.18;;;12.00;99.90;;;;;;5007700;28;20066;-60
2024/03/31 12:33:57;;;;;;;13.40;9.77;;;11.90;99.90;;;;;;5006528;28;20578;-59
2024/03/31 12:36:24;;;;;;;14.10;9.52;;;12.00;99.90;;;;;;5007049;28;20192;-60
2024/03/31 12:38:51;;;;;;;14.23;8.68;;;12.00;99.90;;;;;;5007869;28;20093;-60
2024/03/31 12:41:18;;;;;;;13.50;9.70;;;12.10;99.90;;;;;;5005989;28;20544;-59
2024/03/31 12:43:45;;;;;;;10.60;7.90;;;12.10;99.90;;;;;;5006650;28;20540;-59